createdAt,value
2022-11-28T00:00:58.367Z,5.55
2022-11-28T00:03:25.639Z,5.75
2022-11-28T00:05:52.923Z,5.25
2022-11-28T00:08:19.742Z,5.72
2022-11-28T00:10:46.355Z,5.50
2022-11-28T00:13:13.102Z,5.45
2022-11-28T00:15:39.923Z,4.90
2022-11-28T00:18:06.570Z,4.82
2022-11-28T00:20:34.034Z,5.35
2022-11-28T00:23:00.680Z,4.68
2022-11-28T00:25:27.416Z,5.25
2022-11-28T00:27:54.112Z,5.00
2022-11-28T00:30:20.822Z,4.47
2022-11-28T00:32:47.427Z,4.43
2022-11-28T00:35:14.244Z,4.75
2022-11-28T00:37:40.852Z,5.55
2022-11-28T00:40:07.808Z,5.45
2022-11-28T00:45:00.007Z,4.85
2022-11-28T00:47:26.899Z,4.68
2022-11-28T00:57:09.886Z,5.03
2022-11-28T00:59:36.591Z,5.45
2022-11-28T01:02:03.281Z,4.88
2022-11-28T01:04:30.034Z,5.47
2022-11-28T01:06:57.640Z,5.28
2022-11-28T01:09:24.441Z,5.45
2022-11-28T01:11:51.964Z,5.18
2022-11-28T01:14:19.473Z,5.22
2022-11-28T01:16:46.136Z,4.78
2022-11-28T01:19:14.014Z,4.55
2022-11-28T01:21:40.830Z,4.50
2022-11-28T01:24:08.095Z,4.25
2022-11-28T01:31:26.954Z,4.22
2022-11-28T01:36:20.348Z,4.88
2022-11-28T01:38:47.447Z,4.18
2022-11-28T01:41:15.593Z,4.28
2022-11-28T01:44:02.610Z,5.25
2022-11-28T01:53:50.406Z,4.50
2022-11-28T01:56:22.032Z,4.78
2022-11-28T02:01:18.952Z,6.68
2022-11-28T02:03:47.630Z,6.72
2022-11-28T02:06:16.131Z,6.72
2022-11-28T02:08:42.861Z,4.97
2022-11-28T02:11:09.481Z,5.15
2022-11-28T02:13:40.915Z,5.43
2022-11-28T02:16:07.553Z,4.75
2022-11-28T02:18:52.562Z,5.30
2022-11-28T02:21:28.399Z,5.18
2022-11-28T02:24:04.223Z,5.50
2022-11-28T02:29:18.062Z,5.70
2022-11-28T02:32:09.240Z,5.90
2022-11-28T02:34:54.497Z,5.25
2022-11-28T02:44:59.062Z,5.13
2022-11-28T02:47:41.113Z,5.10
2022-11-28T02:50:10.590Z,5.10
2022-11-28T02:55:08.414Z,5.75
2022-11-28T03:00:33.380Z,5.35
2022-11-28T03:03:03.222Z,5.68
2022-11-28T03:05:52.801Z,5.25
2022-11-28T03:08:28.579Z,5.15
2022-11-28T03:10:55.271Z,5.50
2022-11-28T03:13:24.991Z,7.55
2022-11-28T03:16:06.912Z,5.20
2022-11-28T03:18:39.591Z,5.93
2022-11-28T03:21:17.961Z,5.45
2022-11-28T03:23:44.682Z,5.78
2022-11-28T03:26:31.586Z,4.70
2022-11-28T03:29:06.633Z,5.47
2022-11-28T03:36:46.317Z,5.13
2022-11-28T03:39:14.689Z,5.32
2022-11-28T03:41:43.539Z,5.80
2022-11-28T03:46:41.815Z,4.93
2022-11-28T03:49:09.597Z,5.75
2022-11-28T03:51:39.311Z,4.82
2022-11-28T03:54:14.990Z,4.50
2022-11-28T03:56:50.752Z,4.93
2022-11-28T03:59:20.234Z,4.70
2022-11-28T04:04:33.659Z,4.70
2022-11-28T04:07:09.640Z,4.68
2022-11-28T04:09:49.163Z,4.88
2022-11-28T04:17:24.389Z,4.90
2022-11-28T04:22:40.165Z,5.00
2022-11-28T04:27:43.103Z,4.72
2022-11-28T04:30:10.634Z,4.97
2022-11-28T04:32:40.608Z,4.65
2022-11-28T04:35:10.061Z,5.43
2022-11-28T04:37:38.824Z,4.50
2022-11-28T04:40:07.597Z,5.50
2022-11-28T04:42:37.849Z,4.35
2022-11-28T04:47:48.160Z,4.65
2022-11-28T04:50:15.112Z,5.05
2022-11-28T04:52:47.611Z,4.85
2022-11-28T04:55:30.174Z,5.05
2022-11-28T04:58:02.804Z,4.85
2022-11-28T05:00:29.571Z,4.22
2022-11-28T05:02:56.343Z,4.75
2022-11-28T05:05:25.239Z,4.95
2022-11-28T05:07:52.790Z,4.40
2022-11-28T05:10:19.683Z,4.80
2022-11-28T05:12:46.420Z,5.10
2022-11-28T05:15:13.103Z,4.68
2022-11-28T05:20:06.542Z,4.47
2022-11-28T05:22:33.197Z,4.30
2022-11-28T05:24:59.860Z,4.65
2022-11-28T05:27:26.567Z,4.57
2022-11-28T05:29:53.990Z,4.25
2022-11-28T05:32:21.439Z,4.63
2022-11-28T05:34:48.101Z,4.47
2022-11-28T05:37:16.032Z,3.97
2022-11-28T05:42:08.093Z,4.80
2022-11-28T05:44:34.884Z,4.20
2022-11-28T05:47:01.629Z,5.10
2022-11-28T05:59:10.969Z,4.30
2022-11-28T06:01:37.619Z,3.78
2022-11-28T06:04:04.543Z,4.03
2022-11-28T06:06:32.588Z,4.38
2022-11-28T06:08:59.724Z,4.20
2022-11-28T06:11:29.783Z,3.78
2022-11-28T06:13:59.637Z,3.83
2022-11-28T06:16:27.466Z,3.80
2022-11-28T06:18:54.829Z,3.55
2022-11-28T06:21:21.667Z,3.80
2022-11-28T06:23:48.453Z,4.20
2022-11-28T06:26:16.573Z,3.25
2022-11-28T06:31:12.530Z,3.55
2022-11-28T06:41:36.727Z,3.70
2022-11-28T06:44:03.417Z,3.22
2022-11-28T06:46:30.162Z,3.75
2022-11-28T06:51:22.410Z,3.30
2022-11-28T06:53:49.270Z,3.85
2022-11-28T06:56:17.453Z,3.50
2022-11-28T06:58:44.639Z,3.90
2022-11-28T07:01:19.120Z,4.20
2022-11-28T07:03:46.306Z,4.20
2022-11-28T07:06:14.138Z,4.72
2022-11-28T07:16:05.761Z,4.55
2022-11-28T07:18:32.430Z,5.10
2022-11-28T07:23:24.820Z,3.85
2022-11-28T07:25:51.513Z,3.67
2022-11-28T07:28:22.976Z,4.22
2022-11-28T07:30:49.961Z,3.78
2022-11-28T07:33:16.595Z,3.97
2022-11-28T07:38:08.623Z,3.25
2022-11-28T07:40:35.335Z,3.90
2022-11-28T07:43:01.957Z,4.00
2022-11-28T07:45:41.898Z,3.35
2022-11-28T07:50:40.674Z,3.38
2022-11-28T07:53:07.529Z,4.05
2022-11-28T07:55:35.503Z,4.68
2022-11-28T07:58:03.022Z,4.13
2022-11-28T08:00:29.664Z,4.22
2022-11-28T08:02:56.272Z,4.50
2022-11-28T08:07:49.172Z,4.35
2022-11-28T08:10:16.137Z,3.75
2022-11-28T08:15:08.511Z,4.30
2022-11-28T08:17:35.296Z,4.30
2022-11-28T08:22:27.777Z,5.22
2022-11-28T08:24:54.455Z,5.38
2022-11-28T08:29:50.625Z,5.20
2022-11-28T08:34:45.942Z,4.63
2022-11-28T08:37:12.639Z,4.80
2022-11-28T08:39:39.271Z,4.72
2022-11-28T08:42:05.985Z,4.40
2022-11-28T08:44:32.736Z,4.32
2022-11-28T08:49:24.902Z,5.10
2022-11-28T08:51:52.045Z,5.15
2022-11-28T08:56:46.656Z,4.38
2022-11-28T08:59:13.393Z,4.28
2022-11-28T09:01:40.654Z,4.45
2022-11-28T09:04:07.459Z,4.70
2022-11-28T09:06:34.178Z,4.22
2022-11-28T09:13:54.136Z,4.30
2022-11-28T09:23:38.766Z,3.55
2022-11-28T09:26:11.634Z,4.47
2022-11-28T09:31:04.812Z,4.00
2022-11-28T09:33:31.627Z,4.05
2022-11-28T09:35:58.480Z,3.58
2022-11-28T09:38:25.905Z,4.47
2022-11-28T09:40:52.539Z,3.42
2022-11-28T09:43:39.397Z,3.85
2022-11-28T09:46:07.427Z,3.50
2022-11-28T09:48:36.743Z,3.53
2022-11-28T09:51:23.630Z,4.00
2022-11-28T09:54:16.428Z,4.00
2022-11-28T09:56:44.342Z,3.50
2022-11-28T09:59:17.107Z,4.00
2022-11-28T10:01:55.993Z,3.58
2022-11-28T10:04:41.521Z,3.75
2022-11-28T10:07:17.569Z,3.80
2022-11-28T10:09:53.467Z,3.53
2022-11-28T10:14:57.451Z,3.55
2022-11-28T10:20:02.875Z,4.97
2022-11-28T10:25:01.144Z,3.55
2022-11-28T10:27:32.720Z,3.22
2022-11-28T10:47:18.907Z,3.15
2022-11-28T10:52:55.654Z,3.05
2022-11-28T10:58:12.559Z,2.85
2022-11-28T11:00:39.705Z,3.78
2022-11-28T11:03:11.685Z,2.65
2022-11-28T11:05:38.279Z,2.45
2022-11-28T11:08:10.870Z,2.80
2022-11-28T11:10:49.260Z,2.33
2022-11-28T11:15:43.022Z,2.67
2022-11-28T11:20:49.284Z,2.42
2022-11-28T11:23:20.670Z,2.15
2022-11-28T11:25:50.085Z,2.22
2022-11-28T11:28:32.122Z,2.05
2022-11-28T11:38:33.532Z,2.10
2022-11-28T11:43:45.054Z,2.08
2022-11-28T11:46:12.819Z,2.33
2022-11-28T11:51:42.481Z,1.80
2022-11-28T11:54:16.890Z,2.45
2022-11-28T12:01:40.524Z,2.78
2022-11-28T12:04:37.065Z,3.65
2022-11-28T12:27:09.174Z,3.03
2022-11-28T12:29:35.894Z,1.80
2022-11-28T12:32:02.506Z,2.05
2022-11-28T12:34:38.360Z,1.83
2022-11-28T12:37:14.166Z,1.75
2022-11-28T12:39:40.897Z,1.83
2022-11-28T12:42:26.197Z,1.75
2022-11-28T12:47:26.071Z,2.30
2022-11-28T12:52:22.541Z,1.60
2022-11-28T12:55:07.704Z,1.60
2022-11-28T12:57:45.697Z,1.70
2022-11-28T13:00:25.820Z,1.58
2022-11-28T13:03:12.013Z,2.05
2022-11-28T13:08:25.015Z,1.40
2022-11-28T13:13:39.842Z,1.98
2022-11-28T13:16:27.771Z,1.38
2022-11-28T13:19:05.654Z,1.38
2022-11-28T13:21:48.614Z,1.20
2022-11-28T13:27:15.894Z,1.23
2022-11-28T13:32:17.769Z,0.85
2022-11-28T13:34:45.084Z,1.00
2022-11-28T13:45:31.681Z,1.20
2022-11-28T13:48:00.406Z,1.00
2022-11-28T13:50:29.810Z,1.20
2022-11-28T13:52:59.298Z,0.90
2022-11-28T13:55:46.588Z,1.50
2022-11-28T13:58:24.942Z,1.50
2022-11-28T14:03:30.802Z,0.85
2022-11-28T14:05:58.697Z,0.60
2022-11-28T14:11:09.487Z,1.17
2022-11-28T14:16:07.854Z,0.60
2022-11-28T14:31:30.394Z,1.13
2022-11-28T14:34:01.796Z,1.42
2022-11-28T14:36:30.475Z,1.40
2022-11-28T14:39:01.591Z,1.27
2022-11-28T14:41:28.205Z,1.27
2022-11-28T14:43:54.888Z,1.00
2022-11-28T14:46:21.588Z,1.10
2022-11-28T14:51:43.979Z,1.23
2022-11-28T14:54:23.189Z,1.60
2022-11-28T14:56:52.966Z,1.48
2022-11-28T14:59:26.993Z,1.80
2022-11-28T15:02:02.932Z,1.65
2022-11-28T15:12:33.209Z,0.80
2022-11-28T15:15:00.228Z,0.93
2022-11-28T15:17:32.583Z,1.35
2022-11-28T15:20:03.175Z,1.15
2022-11-28T15:25:03.811Z,2.08
2022-11-28T15:27:30.721Z,1.63
2022-11-28T15:29:58.977Z,1.33
2022-11-28T15:35:01.978Z,2.70
2022-11-28T15:37:33.424Z,2.30
2022-11-28T15:40:01.585Z,2.60
2022-11-28T15:42:30.716Z,2.45
2022-11-28T15:44:59.138Z,2.47
2022-11-28T15:47:26.807Z,2.38
2022-11-28T15:50:13.686Z,1.98
2022-11-28T15:52:40.629Z,2.75
2022-11-28T16:00:12.343Z,2.20
2022-11-28T16:02:40.978Z,1.70
2022-11-28T16:05:12.711Z,1.60
2022-11-28T16:10:20.355Z,1.45
2022-11-28T16:12:47.177Z,4.65
2022-11-28T16:15:18.140Z,2.20
2022-11-28T16:17:44.795Z,3.00
2022-11-28T16:20:21.063Z,1.55
2022-11-28T16:25:20.620Z,1.95
2022-11-28T16:27:48.914Z,1.88
2022-11-28T16:30:24.949Z,2.25
2022-11-28T16:32:52.503Z,2.65
2022-11-28T16:35:26.695Z,2.10
2022-11-28T16:40:23.013Z,1.85
2022-11-28T16:42:53.460Z,2.05
2022-11-28T16:47:52.692Z,2.30
2022-11-28T16:50:21.286Z,2.80
2022-11-28T16:52:49.158Z,2.92
2022-11-28T16:55:31.797Z,2.97
2022-11-28T16:58:17.338Z,3.20
2022-11-28T17:00:45.543Z,2.88
2022-11-28T17:03:38.230Z,2.55
2022-11-28T17:13:22.065Z,3.08
2022-11-28T17:15:48.837Z,3.92
2022-11-28T17:18:15.577Z,3.40
2022-11-28T17:27:59.028Z,14.80
2022-11-28T17:30:25.924Z,8.65
2022-11-28T17:32:52.714Z,3.47
2022-11-28T17:45:25.554Z,5.78
2022-11-28T17:52:46.627Z,18.80
2022-11-28T17:55:13.565Z,16.75
2022-11-28T18:07:32.257Z,9.82
2022-11-28T18:42:00.251Z,9.60
2022-11-28T18:44:27.109Z,7.65
2022-11-28T18:46:53.959Z,8.38
2022-11-28T18:54:16.256Z,3.63
2022-11-28T18:59:12.207Z,16.70
2022-11-28T19:01:40.806Z,24.48
2022-11-28T19:06:36.040Z,9.65
2022-11-28T19:09:04.418Z,11.45
2022-11-28T19:55:49.893Z,3.65
2022-11-28T20:08:25.579Z,3.90
2022-11-28T20:20:34.753Z,5.20
2022-11-28T20:23:01.723Z,4.90
2022-11-28T20:25:28.497Z,4.65
2022-11-28T20:30:23.041Z,6.18
2022-11-28T20:32:49.763Z,5.40
2022-11-28T20:47:25.857Z,7.10
2022-11-28T20:52:18.060Z,5.95
2022-11-28T20:54:44.756Z,5.57
2022-11-28T20:57:21.476Z,6.32
2022-11-28T20:59:48.581Z,5.63
2022-11-28T21:02:15.839Z,5.95
2022-11-28T21:04:42.633Z,5.75
2022-11-28T21:07:09.306Z,4.90
2022-11-28T21:16:53.730Z,3.88
2022-11-28T21:19:20.950Z,4.93
2022-11-28T21:21:47.754Z,3.50
2022-11-28T21:38:53.353Z,4.55
2022-11-28T21:41:20.780Z,4.18
2022-11-28T21:43:47.837Z,4.80
2022-11-28T21:48:40.404Z,4.20
2022-11-28T21:51:07.364Z,3.95
2022-11-28T21:58:27.736Z,4.40
2022-11-28T22:00:57.120Z,5.75
2022-11-28T22:03:24.559Z,4.50
2022-11-28T22:05:52.844Z,5.22
2022-11-28T22:08:22.408Z,5.00
2022-11-28T22:10:49.111Z,4.60
2022-11-28T22:13:15.801Z,4.63
2022-11-28T22:18:09.615Z,4.55
2022-11-28T22:20:43.131Z,4.68
2022-11-28T22:25:36.524Z,4.72
2022-11-28T22:28:03.344Z,3.38
2022-11-28T22:32:55.802Z,3.67
2022-11-28T22:35:22.547Z,4.45
2022-11-28T22:37:49.569Z,4.53
2022-11-28T22:40:16.850Z,4.88
2022-11-28T22:42:43.542Z,4.07
2022-11-28T22:47:36.491Z,3.95
2022-11-28T22:50:03.381Z,3.70
2022-11-28T22:52:30.091Z,4.22
2022-11-28T22:54:57.062Z,4.50
2022-11-28T22:57:23.943Z,4.30
2022-11-28T22:59:50.571Z,4.43
2022-11-28T23:02:17.329Z,4.15
2022-11-28T23:04:45.033Z,3.90
2022-11-28T23:09:37.432Z,3.50
2022-11-28T23:12:06.158Z,4.20
2022-11-28T23:14:32.848Z,4.00
2022-11-28T23:16:59.533Z,3.65
2022-11-28T23:31:37.473Z,3.03
2022-11-28T23:34:05.141Z,3.25
2022-11-28T23:36:38.496Z,3.25
2022-11-28T23:41:36.219Z,3.35
2022-11-28T23:44:02.899Z,3.83
2022-11-28T23:51:21.603Z,4.25
2022-11-28T23:56:20.857Z,3.63
2022-11-28T23:58:47.660Z,2.95
